Time;durP1;ratioP1;P1;durP2;ratioP2;P2;SDS_P1;SDS_P2;PMS_P1;PMS_P2;Temp;Humidity;BMP_temperature;BMP_pressure;BME280_temperature;BME280_humidity;BME280_pressure;Samples;Min_cycle;Max_cycle;Signal;HPM_P1;HPM_P2
2022/07/29 00:00:19;;;;;;;4.03;1.60;;;;;17.70;101123.00;;;;10448807;28;20209;-76
2022/07/29 00:05:21;;;;;;;2.97;1.38;;;;;17.60;101115.00;;;;10461508;28;20270;-77
2022/07/29 00:10:23;;;;;;;4.00;1.50;;;;;17.60;101116.00;;;;10464055;28;20536;-77
2022/07/29 00:15:25;;;;;;;4.22;1.80;;;;;17.60;101111.00;;;;10447998;28;20197;-76
2022/07/29 00:20:27;;;;;;;7.28;2.20;;;;;17.60;101099.00;;;;10475678;28;20316;-76
2022/07/29 00:25:29;;;;;;;5.03;1.70;;;;;17.60;101090.00;;;;10448046;28;20224;-76
2022/07/29 00:30:34;;;;;;;4.10;1.70;;;;;17.60;101096.00;;;;10433858;28;20571;-76
2022/07/29 00:35:45;;;;;;;2.47;1.60;;;;;17.60;101094.00;;;;10481843;28;20197;-76
2022/07/29 00:40:48;;;;;;;5.30;1.70;;;;;17.60;101094.00;;;;10523624;28;20216;-76
2022/07/29 00:45:50;;;;;;;5.43;1.70;;;;;17.50;101085.00;;;;10479576;28;20270;-77
2022/07/29 00:50:52;;;;;;;1.93;1.53;;;;;17.50;101076.00;;;;10487864;28;20242;-76
2022/07/29 00:55:55;;;;;;;5.07;1.87;;;;;17.40;101065.00;;;;10490222;28;20192;-76
2022/07/29 01:00:57;;;;;;;6.97;1.47;;;;;17.30;101071.00;;;;10471142;28;20303;-77
2022/07/29 01:06:00;;;;;;;5.40;1.77;;;;;17.30;101067.00;;;;10467959;28;20252;-77
2022/07/29 01:11:02;;;;;;;2.60;1.60;;;;;17.20;101066.00;;;;10464393;28;20232;-77
2022/07/29 01:16:13;;;;;;;3.83;1.60;;;;;17.10;101063.00;;;;10464104;28;20198;-77
2022/07/29 01:21:25;;;;;;;5.65;1.63;;;;;17.10;101063.00;;;;10494541;28;20644;-77
2022/07/29 01:26:52;;;;;;;3.37;1.43;;;;;17.00;101069.00;;;;10472935;28;20233;-77
2022/07/29 01:31:58;;;;;;;3.17;1.70;;;;;16.80;101076.00;;;;10499603;28;20205;-77
2022/07/29 01:37:15;;;;;;;5.07;1.80;;;;;16.80;101070.00;;;;10504915;28;20185;-77
2022/07/29 01:42:32;;;;;;;2.20;1.77;;;;;16.80;101051.00;;;;10457737;28;20242;-77
2022/07/29 01:47:43;;;;;;;3.53;1.83;;;;;16.80;101062.00;;;;10479602;28;20262;-77
2022/07/29 01:52:58;;;;;;;3.53;1.47;;;;;16.70;101065.00;;;;10458559;28;20595;-76
2022/07/29 01:58:03;;;;;;;3.50;1.90;;;;;16.60;101047.00;;;;10462870;28;20177;-77
2022/07/29 02:03:10;;;;;;;4.00;1.90;;;;;16.40;101040.00;;;;10449529;28;20277;-77
2022/07/29 02:08:14;;;;;;;3.93;2.00;;;;;16.30;101031.00;;;;10462119;28;20210;-77
2022/07/29 02:13:19;;;;;;;4.50;1.70;;;;;16.20;101035.00;;;;10514431;28;20189;-77
2022/07/29 02:18:23;;;;;;;2.97;1.70;;;;;16.00;101043.00;;;;10521771;28;20192;-77
2022/07/29 02:23:26;;;;;;;7.60;2.00;;;;;15.80;101048.00;;;;10462829;28;20284;-77
2022/07/29 02:28:30;;;;;;;3.03;2.10;;;;;15.70;101051.00;;;;10463587;28;20247;-77
2022/07/29 02:33:33;;;;;;;3.47;1.90;;;;;15.50;101056.00;;;;10486598;28;20197;-77
2022/07/29 02:38:51;;;;;;;3.20;1.87;;;;;15.40;101043.00;;;;10478680;28;20186;-77
2022/07/29 02:44:03;;;;;;;4.03;1.80;;;;;15.30;101043.00;;;;10475613;28;20197;-77
2022/07/29 02:49:20;;;;;;;3.60;1.80;;;;;15.30;101048.00;;;;10503442;28;20216;-77
2022/07/29 02:54:39;;;;;;;3.03;2.00;;;;;15.10;101056.00;;;;10445908;28;20196;-78
2022/07/29 02:59:43;;;;;;;5.70;2.20;;;;;15.10;101040.00;;;;10478106;28;20264;-77
2022/07/29 03:04:46;;;;;;;6.27;1.97;;;;;15.00;101042.00;;;;10474727;28;20197;-77
2022/07/29 03:09:49;;;;;;;2.80;1.80;;;;;14.90;101039.00;;;;10461184;28;20193;-77
2022/07/29 03:14:53;;;;;;;5.50;2.07;;;;;14.90;101044.00;;;;10485567;28;20197;-77
2022/07/29 03:19:55;;;;;;;2.73;1.83;;;;;14.90;101039.00;;;;10445284;28;20294;-77
2022/07/29 03:24:57;;;;;;;10.57;2.37;;;;;14.80;101038.00;;;;10477263;28;20215;-77
2022/07/29 03:29:59;;;;;;;3.37;2.10;;;;;14.70;101040.00;;;;10474241;28;20691;-77
2022/07/29 03:35:02;;;;;;;4.97;2.00;;;;;14.70;101042.00;;;;10475286;28;20192;-78
2022/07/29 03:40:07;;;;;;;2.90;2.03;;;;;14.60;101041.00;;;;10489650;28;20185;-77
2022/07/29 03:45:15;;;;;;;4.67;2.40;;;;;14.50;101038.00;;;;10495339;28;20308;-77
2022/07/29 03:50:19;;;;;;;6.13;2.10;;;;;14.40;101046.00;;;;10509820;28;20239;-77
2022/07/29 03:55:21;;;;;;;3.43;2.23;;;;;14.30;101045.00;;;;10475733;28;20234;-77
2022/07/29 04:00:25;;;;;;;2.67;2.10;;;;;14.20;101042.00;;;;10504119;28;20226;-77
2022/07/29 04:05:27;;;;;;;4.87;2.23;;;;;14.10;101053.00;;;;10483547;28;20209;-76
2022/07/29 04:10:29;;;;;;;6.57;2.63;;;;;14.10;101058.00;;;;10492112;28;20215;-77
2022/07/29 04:15:33;;;;;;;5.97;2.63;;;;;14.10;101062.00;;;;10505044;28;20510;-77
2022/07/29 04:20:35;;;;;;;4.77;2.27;;;;;14.10;101057.00;;;;10471233;28;20193;-76
2022/07/29 04:25:38;;;;;;;4.77;2.50;;;;;14.20;101063.00;;;;10482455;28;20224;-76
2022/07/29 04:30:40;;;;;;;6.67;2.57;;;;;14.20;101074.00;;;;10466317;28;20194;-77
2022/07/29 04:35:42;;;;;;;5.00;2.77;;;;;14.20;101075.00;;;;10466193;28;20221;-77
2022/07/29 04:40:51;;;;;;;5.80;2.60;;;;;14.30;101075.00;;;;10465161;28;20189;-77
2022/07/29 04:45:53;;;;;;;6.20;2.77;;;;;14.40;101078.00;;;;10465478;28;20206;-77
2022/07/29 04:50:56;;;;;;;3.77;2.67;;;;;14.50;101079.00;;;;10465859;28;20185;-77
2022/07/29 04:55:58;;;;;;;3.17;2.20;;;;;14.60;101093.00;;;;10446099;28;20189;-77
2022/07/29 05:01:00;;;;;;;3.17;2.73;;;;;14.80;101101.00;;;;10467590;28;20688;-78
2022/07/29 05:06:02;;;;;;;3.20;2.50;;;;;15.00;101100.00;;;;10467696;28;20213;-77
2022/07/29 05:11:04;;;;;;;7.00;3.50;;;;;15.30;101104.00;;;;10452041;28;20209;-77
2022/07/29 05:16:13;;;;;;;8.97;3.30;;;;;15.70;101101.00;;;;10509052;28;20181;-77
2022/07/29 05:21:16;;;;;;;3.23;2.97;;;;;16.00;101104.00;;;;10507826;28;20280;-77
2022/07/29 05:26:18;;;;;;;4.97;3.30;;;;;16.40;101107.00;;;;10491490;28;20778;-77
2022/07/29 05:31:20;;;;;;;6.63;3.23;;;;;16.90;101117.00;;;;10465009;28;20216;-77
2022/07/29 05:36:22;;;;;;;3.43;3.13;;;;;17.50;101122.00;;;;10446968;28;20196;-78
2022/07/29 05:41:25;;;;;;;5.33;3.13;;;;;18.10;101125.00;;;;10466823;28;20292;-77
2022/07/29 05:46:28;;;;;;;3.85;3.45;;;;;18.50;101137.00;;;;10466928;28;20697;-77
2022/07/29 05:51:30;;;;;;;5.03;2.83;;;;;19.10;101131.00;;;;10491054;28;20219;-77
2022/07/29 05:56:31;;;;;;;5.13;2.88;;;;;19.00;101145.00;;;;10464410;28;20193;-77
2022/07/29 06:01:33;;;;;;;9.50;3.35;;;;;18.60;101142.00;;;;10466202;28;20217;-77
2022/07/29 06:06:35;;;;;;;6.25;2.83;;;;;18.50;101137.00;;;;10461476;28;20215;-78
2022/07/29 06:11:38;;;;;;;4.32;3.40;;;;;18.60;101132.00;;;;10446956;28;20652;-77
2022/07/29 06:16:40;;;;;;;5.32;2.88;;;;;19.20;101140.00;;;;10462912;28;20208;-78
2022/07/29 06:21:44;;;;;;;5.55;3.25;;;;;19.90;101132.00;;;;10481933;28;20221;-77
2022/07/29 06:26:46;;;;;;;6.55;3.58;;;;;20.90;101134.00;;;;10492199;28;20212;-77
2022/07/29 06:31:48;;;;;;;8.80;3.50;;;;;21.50;101142.00;;;;10488099;28;20652;-77
2022/07/29 06:36:52;;;;;;;4.97;3.10;;;;;21.80;101141.00;;;;10483679;28;20185;-78
2022/07/29 06:41:54;;;;;;;5.05;3.10;;;;;22.00;101149.00;;;;10485915;28;20231;-77
2022/07/29 06:47:00;;;;;;;5.18;3.20;;;;;21.90;101152.00;;;;10485875;28;20193;-78
2022/07/29 06:52:02;;;;;;;4.63;2.75;;;;;22.10;101143.00;;;;10511787;28;20214;-77
2022/07/29 06:57:04;;;;;;;4.32;2.38;;;;;22.60;101149.00;;;;10473099;28;20908;-78
2022/07/29 07:02:06;;;;;;;3.58;2.47;;;;;23.00;101156.00;;;;10482506;28;20270;-78
2022/07/29 07:07:08;;;;;;;3.30;2.60;;;;;23.30;101162.00;;;;10456063;28;20206;-78
2022/07/29 07:12:10;;;;;;;6.22;3.17;;;;;23.90;101171.00;;;;10461872;28;20204;-78
2022/07/29 07:17:12;;;;;;;7.53;2.70;;;;;24.70;101165.00;;;;10501543;28;20611;-77
2022/07/29 07:22:14;;;;;;;4.32;2.83;;;;;25.80;101177.00;;;;10463522;28;20193;-78
2022/07/29 07:27:16;;;;;;;5.20;2.40;;;;;26.20;101177.00;;;;10505701;28;20252;-78
2022/07/29 07:32:19;;;;;;;8.20;3.05;;;;;26.80;101180.00;;;;10508825;28;20211;-78
2022/07/29 07:37:21;;;;;;;6.55;2.72;;;;;27.20;101171.00;;;;10491135;28;20195;-77
2022/07/29 07:42:23;;;;;;;3.75;2.80;;;;;27.00;101168.00;;;;10511939;28;20246;-78
2022/07/29 07:47:25;;;;;;;3.63;2.75;;;;;26.70;101168.00;;;;10471217;28;20208;-77
2022/07/29 07:52:29;;;;;;;2.75;2.42;;;;;26.60;101161.00;;;;10490652;28;20193;-77
2022/07/29 07:57:31;;;;;;;4.28;2.58;;;;;26.40;101163.00;;;;10496402;28;20180;-77
2022/07/29 08:02:33;;;;;;;3.80;2.47;;;;;26.30;101168.00;;;;10455624;28;20217;-77
2022/07/29 08:07:36;;;;;;;3.17;2.40;;;;;26.10;101175.00;;;;10508029;28;20678;-77
2022/07/29 08:12:38;;;;;;;6.85;2.08;;;;;26.10;101180.00;;;;10499889;28;20186;-77
2022/07/29 08:17:41;;;;;;;5.53;2.90;;;;;26.30;101176.00;;;;10453570;28;20282;-76
2022/07/29 08:22:43;;;;;;;5.65;2.75;;;;;26.30;101179.00;;;;10465733;28;20189;-77
2022/07/29 08:27:47;;;;;;;3.47;2.40;;;;;26.30;101181.00;;;;10475985;28;20209;-77
2022/07/29 08:32:52;;;;;;;4.15;2.45;;;;;26.70;101178.00;;;;10509510;28;20189;-77
2022/07/29 08:37:56;;;;;;;5.68;2.70;;;;;27.00;101171.00;;;;10485662;28;20197;-76
2022/07/29 08:43:05;;;;;;;6.10;2.90;;;;;27.30;101171.00;;;;10488960;28;20192;-77
2022/07/29 08:48:07;;;;;;;4.15;2.78;;;;;27.00;101173.00;;;;10494210;28;20675;-76
2022/07/29 08:53:14;;;;;;;4.07;2.47;;;;;27.60;101180.00;;;;10517929;28;20193;-77
2022/07/29 08:58:17;;;;;;;4.00;2.60;;;;;27.90;101186.00;;;;10474532;28;20243;-77
2022/07/29 09:03:29;;;;;;;3.60;2.53;;;;;27.80;101179.00;;;;10497197;28;20213;-76
2022/07/29 09:08:32;;;;;;;5.28;2.90;;;;;28.30;101179.00;;;;10496358;28;20262;-77
2022/07/29 09:13:34;;;;;;;2.08;1.83;;;;;28.50;101173.00;;;;10478981;28;20200;-76
2022/07/29 09:18:40;;;;;;;5.88;2.22;;;;;28.90;101183.00;;;;10466346;28;20190;-76
2022/07/29 09:24:00;;;;;;;4.05;2.08;;;;;29.10;101173.00;;;;10496512;28;20193;-76
2022/07/29 09:29:16;;;;;;;2.97;2.13;;;;;28.90;101183.00;;;;10508103;28;20212;-77
2022/07/29 09:34:28;;;;;;;7.10;2.30;;;;;29.70;101171.00;;;;10473068;28;20201;-77
2022/07/29 09:39:36;;;;;;;3.35;2.13;;;;;29.80;101174.00;;;;10445033;28;20223;-77
2022/07/29 09:44:45;;;;;;;12.93;2.45;;;;;30.40;101183.00;;;;10430204;28;20231;-77
2022/07/29 09:49:59;;;;;;;3.45;1.45;;;;;31.10;101186.00;;;;10467238;28;20315;-77
2022/07/29 09:55:09;;;;;;;4.47;2.20;;;;;30.80;101190.00;;;;10477066;28;20191;-77
2022/07/29 10:00:22;;;;;;;5.72;1.98;;;;;31.20;101189.00;;;;10482960;28;20240;-76
2022/07/29 10:05:29;;;;;;;3.40;2.13;;;;;31.60;101189.00;;;;10480215;28;20196;-77
2022/07/29 10:10:41;;;;;;;5.53;2.15;;;;;30.90;101192.00;;;;10482100;28;20287;-77
2022/07/29 10:15:45;;;;;;;5.82;1.92;;;;;31.50;101185.00;;;;10492534;28;20189;-77
2022/07/29 10:20:48;;;;;;;3.90;1.80;;;;;32.10;101178.00;;;;10538613;28;20188;-77
2022/07/29 10:25:50;;;;;;;4.72;2.08;;;;;32.10;101179.00;;;;10516219;28;20299;-76
2022/07/29 10:31:01;;;;;;;3.45;1.98;;;;;31.90;101181.00;;;;10506434;28;20196;-76
2022/07/29 10:36:09;;;;;;;6.28;1.95;;;;;32.10;101173.00;;;;10442834;28;20214;-77
2022/07/29 10:41:53;;;;;;;3.17;1.55;;;;;32.40;101173.00;;;;10537223;28;20229;-77
2022/07/29 10:46:56;;;;;;;5.03;1.83;;;;;32.80;101180.00;;;;10461847;28;20319;-76
2022/07/29 10:52:03;;;;;;;2.80;1.50;;;;;33.30;101177.00;;;;10488315;28;20220;-76
2022/07/29 10:57:16;;;;;;;1.88;1.20;;;;;33.00;101185.00;;;;10481242;28;20209;-76
2022/07/29 11:02:34;;;;;;;4.10;1.65;;;;;33.10;101181.00;;;;10490491;28;20452;-76
2022/07/29 11:08:17;;;;;;;2.10;1.42;;;;;32.60;101181.00;;;;10518402;28;20217;-76
2022/07/29 11:13:46;;;;;;;2.45;1.45;;;;;33.00;101177.00;;;;10526605;28;20193;-76
2022/07/29 11:19:22;;;;;;;3.65;1.80;;;;;33.10;101170.00;;;;10489568;28;20197;-77
2022/07/29 11:24:32;;;;;;;3.08;1.58;;;;;34.10;101160.00;;;;10492050;28;20642;-77
2022/07/29 11:29:41;;;;;;;4.18;1.58;;;;;33.80;101153.00;;;;10533134;28;20208;-76
2022/07/29 11:34:44;;;;;;;2.97;1.73;;;;;34.60;101163.00;;;;10466686;28;20201;-77
2022/07/29 11:39:52;;;;;;;3.80;1.50;;;;;34.50;101166.00;;;;10546422;28;20192;-76
2022/07/29 11:45:09;;;;;;;7.28;2.03;;;;;35.10;101156.00;;;;10495657;28;20204;-76
2022/07/29 11:50:34;;;;;;;8.13;1.58;;;;;35.50;101167.00;;;;10526277;28;20194;-76
2022/07/29 11:55:39;;;;;;;2.30;1.52;;;;;34.30;101172.00;;;;10506501;28;20250;-76
2022/07/29 12:00:53;;;;;;;2.30;1.90;;;;;33.30;101176.00;;;;10499234;28;20217;-77
2022/07/29 12:05:57;;;;;;;21.70;2.75;;;;;32.00;101177.00;;;;10458658;28;20300;-76
2022/07/29 12:10:59;;;;;;;5.35;1.60;;;;;31.40;101183.00;;;;10514964;28;20241;-77
2022/07/29 12:16:03;;;;;;;4.63;1.65;;;;;31.20;101184.00;;;;10532425;28;20193;-76
2022/07/29 12:21:05;;;;;;;4.43;2.00;;;;;31.00;101181.00;;;;10520232;28;20656;-77
2022/07/29 12:26:07;;;;;;;7.28;1.80;;;;;33.00;101175.00;;;;10448685;28;20213;-76
2022/07/29 12:31:15;;;;;;;2.35;1.63;;;;;33.50;101175.00;;;;10470611;28;20647;-77
2022/07/29 12:36:41;;;;;;;5.07;1.70;;;;;33.90;101180.00;;;;10467992;28;20193;-77
2022/07/29 12:41:43;;;;;;;4.13;1.80;;;;;32.70;101177.00;;;;10480029;28;20193;-77
2022/07/29 12:47:00;;;;;;;5.18;1.92;;;;;32.60;101170.00;;;;10509317;28;20209;-76
2022/07/29 12:52:40;;;;;;;5.03;2.70;;;;;33.60;101172.00;;;;10516573;28;20263;-77
2022/07/29 12:57:47;;;;;;;4.40;2.22;;;;;35.00;101170.00;;;;10503272;28;20185;-77
2022/07/29 13:02:58;;;;;;;2.40;1.90;;;;;35.10;101178.00;;;;10486049;28;20296;-77
2022/07/29 13:08:18;;;;;;;12.45;2.85;;;;;33.40;101160.00;;;;10469796;28;20690;-76
2022/07/29 13:13:25;;;;;;;3.47;2.22;;;;;34.70;101167.00;;;;10478237;28;20234;-77
2022/07/29 13:18:37;;;;;;;4.47;2.28;;;;;34.90;101181.00;;;;10511890;28;20184;-78
2022/07/29 13:23:40;;;;;;;6.25;2.78;;;;;32.70;101173.00;;;;10451353;28;20197;-77
2022/07/29 13:28:42;;;;;;;6.88;3.60;;;;;32.60;101168.00;;;;10488903;28;20224;-78
2022/07/29 13:33:45;;;;;;;5.38;2.50;;;;;33.30;101172.00;;;;10447549;28;20318;-78
2022/07/29 13:38:47;;;;;;;6.65;2.20;;;;;34.00;101169.00;;;;10470145;28;20204;-77
2022/07/29 13:43:49;;;;;;;5.43;2.30;;;;;34.00;101164.00;;;;10500675;28;20199;-78
2022/07/29 13:48:51;;;;;;;3.83;1.85;;;;;33.00;101173.00;;;;10454215;28;20209;-78
2022/07/29 13:53:53;;;;;;;2.95;1.88;;;;;31.20;101167.00;;;;10452887;28;20205;-79
2022/07/29 13:58:56;;;;;;;7.05;2.35;;;;;30.20;101178.00;;;;10461257;28;20193;-78
2022/07/29 14:03:59;;;;;;;4.43;2.40;;;;;29.10;101178.00;;;;10452901;28;20225;-78
2022/07/29 14:09:05;;;;;;;6.53;2.60;;;;;32.60;101165.00;;;;10486771;28;20291;-78
2022/07/29 14:14:09;;;;;;;3.60;1.83;;;;;32.60;101161.00;;;;10470119;28;20206;-78
2022/07/29 14:19:12;;;;;;;4.18;1.73;;;;;35.40;101164.00;;;;10461869;28;20182;-78
2022/07/29 14:24:14;;;;;;;2.28;1.90;;;;;35.60;101166.00;;;;10445823;28;20193;-77
2022/07/29 14:29:19;;;;;;;2.10;1.50;;;;;36.60;101165.00;;;;10474563;28;20687;-77
2022/07/29 14:34:22;;;;;;;3.42;1.95;;;;;36.70;101169.00;;;;10457290;28;20212;-77
2022/07/29 14:39:24;;;;;;;6.88;1.42;;;;;34.80;101159.00;;;;10488930;28;20264;-77
2022/07/29 14:44:32;;;;;;;2.10;1.40;;;;;38.30;101166.00;;;;10464194;28;20196;-77
2022/07/29 14:49:35;;;;;;;5.15;2.42;;;;;39.50;101165.00;;;;10473720;28;20205;-77
2022/07/29 14:54:36;;;;;;;5.10;2.10;;;;;39.50;101168.00;;;;10485481;28;20204;-77
2022/07/29 14:59:39;;;;;;;2.80;1.40;;;;;39.00;101173.00;;;;10463372;28;20178;-77
2022/07/29 15:04:41;;;;;;;3.67;1.80;;;;;37.50;101162.00;;;;10475681;28;20232;-78
2022/07/29 15:09:44;;;;;;;4.97;1.50;;;;;37.80;101170.00;;;;10492612;28;20255;-78
2022/07/29 15:14:51;;;;;;;4.80;1.80;;;;;35.30;101190.00;;;;10460120;28;20255;-77
2022/07/29 15:19:53;;;;;;;2.80;1.60;;;;;35.90;101176.00;;;;10509329;28;20196;-78
2022/07/29 15:24:55;;;;;;;2.22;1.90;;;;;36.40;101164.00;;;;10494251;28;20280;-77
2022/07/29 15:29:57;;;;;;;3.83;1.35;;;;;38.80;101159.00;;;;10453377;28;20290;-78
2022/07/29 15:34:59;;;;;;;3.08;1.63;;;;;32.90;101182.00;;;;10504373;28;20201;-78
2022/07/29 15:40:01;;;;;;;6.15;1.75;;;;;33.60;101162.00;;;;10487255;28;20199;-78
2022/07/29 15:45:04;;;;;;;2.78;1.50;;;;;37.40;101156.00;;;;10511310;28;20620;-77
2022/07/29 15:50:11;;;;;;;2.90;1.80;;;;;37.10;101167.00;;;;10536429;28;20659;-78
2022/07/29 15:55:15;;;;;;;6.30;2.10;;;;;34.20;101173.00;;;;10501001;28;20198;-78
2022/07/29 16:00:17;;;;;;;3.15;1.90;;;;;31.80;101163.00;;;;10453446;28;20215;-79
2022/07/29 16:05:19;;;;;;;4.55;1.98;;;;;30.50;101162.00;;;;10488812;28;20272;-78
2022/07/29 16:10:21;;;;;;;2.00;1.80;;;;;29.80;101158.00;;;;10508835;28;20197;-78
2022/07/29 16:15:23;;;;;;;5.10;1.80;;;;;28.50;101159.00;;;;10501777;28;20182;-78
2022/07/29 16:20:25;;;;;;;4.47;2.00;;;;;27.50;101164.00;;;;10541938;28;20206;-78
2022/07/29 16:25:31;;;;;;;3.85;1.77;;;;;27.40;101157.00;;;;10500396;28;20193;-79
2022/07/29 16:30:53;;;;;;;2.95;2.22;;;;;27.70;101151.00;;;;10455715;28;20224;-77
2022/07/29 16:35:55;;;;;;;4.50;2.17;;;;;27.60;101146.00;;;;10485303;28;20280;-77
2022/07/29 16:40:57;;;;;;;9.52;2.53;;;;;27.40;101142.00;;;;10506220;28;20189;-78
2022/07/29 16:45:59;;;;;;;2.63;2.03;;;;;27.60;101141.00;;;;10475186;28;20283;-78
2022/07/29 16:51:06;;;;;;;4.55;2.28;;;;;27.60;101149.00;;;;10473269;28;20594;-77
2022/07/29 16:56:10;;;;;;;2.50;2.13;;;;;27.40;101156.00;;;;10496907;28;20193;-78
2022/07/29 17:01:13;;;;;;;7.82;2.25;;;;;26.80;101155.00;;;;10503601;28;20220;-78
2022/07/29 17:06:16;;;;;;;3.88;2.10;;;;;26.50;101156.00;;;;10474732;28;20644;-78
2022/07/29 17:11:18;;;;;;;3.50;2.03;;;;;26.50;101156.00;;;;10462894;28;20193;-79
2022/07/29 17:16:23;;;;;;;3.30;2.30;;;;;26.20;101160.00;;;;10466197;28;20196;-78
2022/07/29 17:21:25;;;;;;;5.45;2.80;;;;;25.90;101168.00;;;;10509153;28;20189;-78
2022/07/29 17:26:27;;;;;;;3.78;2.22;;;;;25.80;101172.00;;;;10459572;28;20239;-78
2022/07/29 17:31:29;;;;;;;3.95;2.58;;;;;25.60;101176.00;;;;10465905;28;20686;-78
2022/07/29 17:36:31;;;;;;;2.00;1.80;;;;;25.60;101181.00;;;;10467751;28;20221;-78
2022/07/29 17:41:34;;;;;;;3.33;1.83;;;;;25.40;101177.00;;;;10466454;28;20632;-78
2022/07/29 17:46:36;;;;;;;3.20;2.45;;;;;25.20;101184.00;;;;10467851;28;20196;-78
2022/07/29 17:51:39;;;;;;;4.20;1.60;;;;;25.00;101183.00;;;;10477835;28;20568;-78
2022/07/29 17:56:41;;;;;;;6.65;2.00;;;;;24.90;101192.00;;;;10474458;28;20323;-78
2022/07/29 18:01:43;;;;;;;5.65;2.10;;;;;24.60;101188.00;;;;10487247;28;20643;-77
2022/07/29 18:06:45;;;;;;;3.53;2.00;;;;;24.40;101195.00;;;;10486572;28;20201;-77
2022/07/29 18:11:48;;;;;;;4.20;2.30;;;;;24.10;101194.00;;;;10472660;28;20196;-78
2022/07/29 18:16:49;;;;;;;3.75;2.10;;;;;23.70;101207.00;;;;10475496;28;20197;-78
2022/07/29 18:21:52;;;;;;;3.75;1.90;;;;;23.60;101201.00;;;;10455337;28;20250;-77
2022/07/29 18:26:57;;;;;;;5.85;1.95;;;;;23.50;101204.00;;;;10467727;28;20208;-77
2022/07/29 18:32:00;;;;;;;3.95;1.70;;;;;23.50;101201.00;;;;10479734;28;20637;-77
2022/07/29 18:37:04;;;;;;;3.90;1.73;;;;;23.50;101203.00;;;;10482399;28;20694;-77
2022/07/29 18:42:06;;;;;;;2.90;1.88;;;;;23.50;101217.00;;;;10474515;28;20636;-77
2022/07/29 18:47:08;;;;;;;4.38;1.92;;;;;23.40;101213.00;;;;10485278;28;20229;-78
2022/07/29 18:52:12;;;;;;;3.13;1.70;;;;;23.20;101220.00;;;;10482969;28;20196;-78
2022/07/29 18:57:16;;;;;;;4.45;1.83;;;;;23.00;101238.00;;;;10479741;28;20204;-77
2022/07/29 19:02:41;;;;;;;5.53;1.92;;;;;22.80;101236.00;;;;10487828;28;20387;-77
2022/07/29 19:07:43;;;;;;;3.15;1.77;;;;;22.60;101238.00;;;;10468282;28;20520;-78
2022/07/29 19:12:45;;;;;;;2.42;1.67;;;;;22.40;101248.00;;;;10489630;28;20190;-77
2022/07/29 19:17:49;;;;;;;4.70;1.90;;;;;22.10;101247.00;;;;10470134;28;20188;-77
2022/07/29 19:22:51;;;;;;;4.03;1.38;;;;;21.90;101259.00;;;;10499533;28;20185;-76
2022/07/29 19:27:54;;;;;;;2.47;1.58;;;;;21.70;101276.00;;;;10467407;28;20217;-76
2022/07/29 19:32:56;;;;;;;3.05;1.50;;;;;21.40;101282.00;;;;10484568;28;20190;-76
2022/07/29 19:38:00;;;;;;;3.50;1.88;;;;;21.20;101298.00;;;;10469704;28;20230;-77
2022/07/29 19:43:03;;;;;;;3.35;1.73;;;;;21.00;101300.00;;;;10472447;28;20197;-77
2022/07/29 19:48:25;;;;;;;3.63;1.95;;;;;20.90;101307.00;;;;10497068;28;20197;-77
2022/07/29 19:53:27;;;;;;;3.90;1.90;;;;;20.70;101310.00;;;;10494666;28;20200;-77
2022/07/29 19:58:30;;;;;;;4.43;1.83;;;;;20.50;101326.00;;;;10484316;28;20280;-77
2022/07/29 20:03:38;;;;;;;3.22;1.90;;;;;20.40;101331.00;;;;10462560;28;20221;-77
2022/07/29 20:08:40;;;;;;;3.70;1.77;;;;;20.30;101338.00;;;;10462920;28;20551;-78
2022/07/29 20:13:43;;;;;;;3.03;1.60;;;;;20.10;101342.00;;;;10465279;28;20188;-77
2022/07/29 20:18:45;;;;;;;5.13;1.63;;;;;20.00;101337.00;;;;10464319;28;20288;-77
2022/07/29 20:23:48;;;;;;;6.97;1.80;;;;;19.90;101343.00;;;;10496479;28;20199;-77
2022/07/29 20:28:50;;;;;;;4.10;1.83;;;;;19.70;101343.00;;;;10520808;28;20212;-77
2022/07/29 20:33:52;;;;;;;8.43;2.05;;;;;19.60;101341.00;;;;10487716;28;20283;-78
2022/07/29 20:38:55;;;;;;;4.63;1.80;;;;;19.40;101347.00;;;;10486066;28;20609;-78
2022/07/29 20:43:59;;;;;;;2.22;1.70;;;;;19.20;101352.00;;;;10488765;28;20246;-78
2022/07/29 20:49:01;;;;;;;5.97;2.20;;;;;19.10;101346.00;;;;10483097;28;20208;-78
2022/07/29 20:54:03;;;;;;;6.78;2.22;;;;;19.00;101356.00;;;;10495250;28;20216;-77
2022/07/29 20:59:05;;;;;;;7.88;2.50;;;;;18.90;101346.00;;;;10461331;28;20189;-78
2022/07/29 21:04:08;;;;;;;5.55;2.20;;;;;18.70;101339.00;;;;10504463;28;20264;-78
2022/07/29 21:09:11;;;;;;;3.83;2.22;;;;;18.60;101352.00;;;;10476099;28;20625;-79
2022/07/29 21:14:24;;;;;;;6.28;2.80;;;;;18.50;101364.00;;;;10483068;28;20663;-78
2022/07/29 21:19:27;;;;;;;7.75;2.70;;;;;18.40;101364.00;;;;10477853;28;20196;-78
2022/07/29 21:24:29;;;;;;;5.13;2.33;;;;;18.20;101368.00;;;;10462963;28;20193;-78
2022/07/29 21:29:32;;;;;;;5.55;2.63;;;;;18.10;101371.00;;;;10480644;28;20229;-78
2022/07/29 21:34:34;;;;;;;4.70;2.65;;;;;18.00;101366.00;;;;10462167;28;20189;-78
2022/07/29 21:39:37;;;;;;;7.07;3.15;;;;;17.90;101348.00;;;;10498773;28;20629;-78
2022/07/29 21:44:39;;;;;;;7.97;3.17;;;;;17.80;101351.00;;;;10464729;28;20227;-78
2022/07/29 21:49:41;;;;;;;6.25;3.08;;;;;17.70;101346.00;;;;10483530;28;20205;-78
2022/07/29 21:54:44;;;;;;;7.20;2.85;;;;;17.60;101355.00;;;;10500647;28;20690;-78
2022/07/29 21:59:46;;;;;;;11.57;3.20;;;;;17.40;101358.00;;;;10466016;28;20193;-78
2022/07/29 22:04:50;;;;;;;7.97;3.28;;;;;17.40;101359.00;;;;10478822;28;20272;-78
2022/07/29 22:09:55;;;;;;;8.40;3.35;;;;;17.30;101367.00;;;;10494502;28;20217;-79
2022/07/29 22:15:03;;;;;;;4.83;3.03;;;;;17.20;101369.00;;;;10477822;28;20194;-77
2022/07/29 22:20:06;;;;;;;10.47;3.20;;;;;17.10;101372.00;;;;10480536;28;20184;-78
2022/07/29 22:25:09;;;;;;;10.97;3.77;;;;;17.00;101379.00;;;;10468150;28;20186;-78
2022/07/29 22:30:12;;;;;;;6.90;3.33;;;;;17.00;101385.00;;;;10505571;28;20212;-78
2022/07/29 22:35:14;;;;;;;9.30;3.73;;;;;16.90;101378.00;;;;10502682;28;20197;-77
2022/07/29 22:40:17;;;;;;;7.43;3.97;;;;;16.90;101380.00;;;;10482574;28;20201;-77
2022/07/29 22:45:19;;;;;;;8.30;4.20;;;;;16.90;101396.00;;;;10489307;28;20284;-78
2022/07/29 22:50:23;;;;;;;7.70;4.57;;;;;16.80;101400.00;;;;10478712;28;20196;-78
2022/07/29 22:55:25;;;;;;;8.47;3.70;;;;;16.70;101398.00;;;;10476379;28;20196;-78
2022/07/29 23:00:27;;;;;;;12.10;4.33;;;;;16.70;101404.00;;;;10474920;28;20706;-78
2022/07/29 23:05:29;;;;;;;15.13;4.10;;;;;16.60;101401.00;;;;10465926;28;20220;-78
2022/07/29 23:10:31;;;;;;;8.43;4.60;;;;;16.60;101401.00;;;;10466952;28;20208;-78
2022/07/29 23:15:33;;;;;;;7.83;4.57;;;;;16.40;101391.00;;;;10473766;28;20197;-78
2022/07/29 23:20:35;;;;;;;13.83;5.03;;;;;16.30;101395.00;;;;10457517;28;20209;-78
2022/07/29 23:25:37;;;;;;;8.00;4.77;;;;;16.20;101405.00;;;;10474922;28;20214;-77
2022/07/29 23:30:40;;;;;;;14.37;5.63;;;;;16.10;101401.00;;;;10493945;28;20213;-78
2022/07/29 23:35:43;;;;;;;5.60;4.80;;;;;16.00;101399.00;;;;10481229;28;20254;-78
2022/07/29 23:40:44;;;;;;;7.83;5.20;;;;;16.00;101395.00;;;;10474613;28;20185;-78
2022/07/29 23:45:46;;;;;;;11.43;5.90;;;;;15.90;101388.00;;;;10482780;28;20189;-78
2022/07/29 23:50:49;;;;;;;13.07;6.33;;;;;15.80;101387.00;;;;10465220;28;20229;-78
2022/07/29 23:55:51;;;;;;;12.27;6.47;;;;;15.80;101403.00;;;;10471395;28;20644;-78
